createdAt,value
2023-03-04T00:00:13.947Z,0
2023-03-04T00:01:21.000Z,0
2023-03-04T00:02:46.334Z,0
2023-03-04T00:04:02.785Z,0
2023-03-04T00:05:18.723Z,0
2023-03-04T00:06:34.917Z,0
2023-03-04T00:07:42.000Z,0
2023-03-04T00:09:07.304Z,0
2023-03-04T00:10:15.000Z,0
2023-03-04T00:11:39.939Z,0
2023-03-04T00:12:47.000Z,0
2023-03-04T00:14:03.000Z,0
2023-03-04T00:15:27.291Z,0
2023-03-04T00:16:43.730Z,0
2023-03-04T00:17:51.000Z,0
2023-03-04T00:19:16.124Z,0
2023-03-04T00:20:23.000Z,0
2023-03-04T00:21:48.261Z,0
2023-03-04T00:23:04.455Z,0
2023-03-04T00:24:20.649Z,0
2023-03-04T00:25:28.000Z,0
2023-03-04T00:26:44.000Z,0
2023-03-04T00:28:09.231Z,0
2023-03-04T00:28:55.000Z,0
2023-03-04T00:29:25.679Z,0
2023-03-04T00:30:41.618Z,0
2023-03-04T00:31:48.000Z,0
2023-03-04T00:33:13.022Z,0
2023-03-04T00:35:37.000Z,0
2023-03-04T00:37:01.849Z,0
2023-03-04T00:38:09.000Z,0
2023-03-04T00:39:25.000Z,0
2023-03-04T00:40:49.207Z,0
2023-03-04T00:42:05.401Z,0
2023-03-04T00:43:12.000Z,0
2023-03-04T00:44:27.000Z,0
2023-03-04T00:45:42.000Z,0
2023-03-04T00:47:06.263Z,0
2023-03-04T00:48:14.000Z,0
2023-03-04T00:49:38.900Z,0
2023-03-04T00:50:46.000Z,0
2023-03-04T00:52:11.287Z,0
2023-03-04T00:53:27.232Z,0
2023-03-04T00:54:43.425Z,0
2023-03-04T00:55:51.000Z,0
2023-03-04T00:57:16.057Z,0
2023-03-04T00:58:23.000Z,0
2023-03-04T00:59:40.000Z,0
2023-03-04T01:00:56.000Z,0
2023-03-04T01:02:20.588Z,0
2023-03-04T01:03:35.798Z,0
2023-03-04T01:04:43.000Z,0
2023-03-04T01:06:08.186Z,0
2023-03-04T01:07:24.380Z,0
2023-03-04T01:08:40.574Z,0
2023-03-04T01:09:57.016Z,0
2023-03-04T01:11:13.216Z,0
2023-03-04T01:12:28.182Z,0
2023-03-04T01:13:35.000Z,0
2023-03-04T01:14:51.000Z,0
2023-03-04T01:16:07.000Z,0
2023-03-04T01:17:31.249Z,0
2023-03-04T01:18:46.211Z,0
2023-03-04T01:20:02.664Z,0
2023-03-04T01:21:10.000Z,0
2023-03-04T01:22:26.000Z,0
2023-03-04T01:23:51.237Z,0
2023-03-04T01:25:07.181Z,0
2023-03-04T01:26:15.000Z,0
2023-03-04T01:27:39.568Z,0
2023-03-04T01:28:55.763Z,0
2023-03-04T01:29:42.000Z,0
2023-03-04T01:30:11.957Z,0
2023-03-04T01:31:28.151Z,0
2023-03-04T01:32:14.000Z,0
2023-03-04T01:32:44.345Z,0
2023-03-04T01:34:00.539Z,0
2023-03-04T01:36:23.000Z,0
2023-03-04T01:38:56.000Z,0
2023-03-04T01:40:12.000Z,0
2023-03-04T01:41:36.718Z,0
2023-03-04T01:42:52.912Z,0
2023-03-04T01:44:08.132Z,0
2023-03-04T01:45:23.591Z,0
2023-03-04T01:46:46.139Z,0
2023-03-04T01:47:47.000Z,0
2023-03-04T01:49:02.000Z,0
2023-03-04T01:50:26.161Z,0
2023-03-04T01:51:34.000Z,0
2023-03-04T01:52:58.793Z,0
2023-03-04T01:53:45.000Z,0
2023-03-04T01:54:14.742Z,0
2023-03-04T01:55:22.000Z,0
2023-03-04T01:56:47.130Z,0
2023-03-04T01:57:55.000Z,0
2023-03-04T02:00:27.000Z,0
2023-03-04T02:01:52.154Z,0
2023-03-04T02:03:08.099Z,0
2023-03-04T02:04:24.545Z,0
2023-03-04T02:05:40.744Z,0
2023-03-04T02:06:55.697Z,0
2023-03-04T02:08:12.136Z,0
2023-03-04T02:09:19.000Z,0
2023-03-04T02:10:44.279Z,0
2023-03-04T02:12:00.473Z,0
2023-03-04T02:13:16.910Z,0
2023-03-04T02:14:32.861Z,0
2023-03-04T02:15:39.000Z,0
2023-03-04T02:16:55.000Z,0
2023-03-04T02:18:19.487Z,0
2023-03-04T02:19:34.707Z,0
2023-03-04T02:20:49.918Z,0
2023-03-04T02:21:57.000Z,0
2023-03-04T02:23:22.306Z,0
2023-03-04T02:24:30.000Z,0
2023-03-04T02:25:54.694Z,0
2023-03-04T02:27:10.888Z,0
2023-03-04T02:28:27.082Z,0
2023-03-04T02:29:35.000Z,0
2023-03-04T02:30:59.469Z,0
2023-03-04T02:32:07.000Z,0
2023-03-04T02:33:23.000Z,0
2023-03-04T02:34:39.000Z,0
2023-03-04T02:35:56.000Z,0
2023-03-04T02:37:19.717Z,0
2023-03-04T02:38:35.894Z,0
2023-03-04T02:39:43.000Z,0
2023-03-04T02:41:08.039Z,0
2023-03-04T02:42:16.000Z,0
2023-03-04T02:43:40.429Z,0
2023-03-04T02:44:48.000Z,0
2023-03-04T02:46:03.000Z,0
2023-03-04T02:47:28.042Z,0
2023-03-04T02:48:44.237Z,0
2023-03-04T02:49:51.000Z,0
2023-03-04T02:51:14.918Z,0
2023-03-04T02:52:30.866Z,0
2023-03-04T02:53:47.062Z,0
2023-03-04T02:54:55.000Z,0
2023-03-04T02:56:11.000Z,0
2023-03-04T02:57:27.000Z,0
2023-03-04T02:58:43.000Z,0
2023-03-04T02:59:59.000Z,0
2023-03-04T03:01:16.000Z,0
2023-03-04T03:02:32.000Z,0
2023-03-04T03:03:56.871Z,0
2023-03-04T03:05:13.067Z,0
2023-03-04T03:06:29.016Z,0
2023-03-04T03:07:36.000Z,0
2023-03-04T03:09:00.423Z,0
2023-03-04T03:10:16.618Z,0
2023-03-04T03:11:32.815Z,0
2023-03-04T03:12:40.000Z,0
2023-03-04T03:14:05.206Z,0
2023-03-04T03:16:09.549Z,0
2023-03-04T03:16:29.000Z,0
2023-03-04T03:17:52.820Z,0
2023-03-04T03:19:08.032Z,0
2023-03-04T03:20:23.254Z,0
2023-03-04T03:21:38.467Z,0
2023-03-04T03:22:46.000Z,0
2023-03-04T03:24:02.000Z,0
2023-03-04T03:25:27.053Z,0
2023-03-04T03:26:43.249Z,0
2023-03-04T03:27:51.000Z,0
2023-03-04T03:29:15.896Z,0
2023-03-04T03:30:23.000Z,0
2023-03-04T03:31:39.000Z,0
2023-03-04T03:33:04.480Z,0
2023-03-04T03:34:20.425Z,0
2023-03-04T03:35:36.620Z,0
2023-03-04T03:36:53.067Z,0
2023-03-04T03:38:08.028Z,0
2023-03-04T03:39:24.224Z,0
2023-03-04T03:40:32.000Z,0
2023-03-04T03:41:48.000Z,0
2023-03-04T03:43:04.000Z,0
2023-03-04T03:44:29.263Z,0
2023-03-04T03:45:45.203Z,0
2023-03-04T03:47:01.643Z,0
2023-03-04T03:48:09.000Z,0
2023-03-04T03:49:33.791Z,0
2023-03-04T03:50:49.987Z,0
2023-03-04T03:51:57.000Z,0
2023-03-04T03:53:13.000Z,0
2023-03-04T03:54:36.617Z,0
2023-03-04T03:55:52.811Z,0
2023-03-04T03:57:09.008Z,0
2023-03-04T03:58:24.229Z,0
2023-03-04T03:59:39.691Z,0
2023-03-04T04:00:55.889Z,0
2023-03-04T04:02:11.833Z,0
2023-03-04T04:03:19.000Z,0
2023-03-04T04:04:44.224Z,0
2023-03-04T04:05:52.000Z,0
2023-03-04T04:07:16.866Z,0
2023-03-04T04:08:32.811Z,0
2023-03-04T04:09:49.008Z,0
2023-03-04T04:11:05.445Z,0
2023-03-04T04:12:21.646Z,0
2023-03-04T04:13:37.842Z,0
2023-03-04T04:14:53.791Z,0
2023-03-04T04:16:00.000Z,0
2023-03-04T04:17:16.000Z,0
2023-03-04T04:18:41.642Z,0
2023-03-04T04:19:57.591Z,0
2023-03-04T04:21:13.786Z,0
2023-03-04T04:22:21.000Z,0
2023-03-04T04:23:58.968Z,0
2023-03-04T04:24:53.000Z,0
2023-03-04T04:26:16.860Z,0
2023-03-04T04:27:33.052Z,0
2023-03-04T04:28:18.000Z,0
2023-03-04T04:28:49.003Z,0
2023-03-04T04:30:05.199Z,0
2023-03-04T04:31:20.421Z,0
2023-03-04T04:32:35.633Z,0
2023-03-04T04:34:59.000Z,0
2023-03-04T04:36:16.000Z,0
2023-03-04T04:37:40.658Z,0
2023-03-04T04:38:48.000Z,0
2023-03-04T04:40:12.808Z,0
2023-03-04T04:41:29.003Z,0
2023-03-04T04:42:45.199Z,0
2023-03-04T04:44:01.395Z,0
2023-03-04T04:45:17.591Z,0
2023-03-04T04:46:25.000Z,0
2023-03-04T04:47:41.000Z,0
2023-03-04T04:48:56.000Z,0
2023-03-04T04:50:13.000Z,0
2023-03-04T04:51:29.000Z,0
2023-03-04T04:52:54.033Z,0
2023-03-04T04:54:10.223Z,0
2023-03-04T04:55:25.195Z,0
2023-03-04T04:56:33.000Z,0
2023-03-04T04:57:48.000Z,0
2023-03-04T04:59:11.825Z,0
2023-03-04T05:00:28.021Z,0
2023-03-04T05:02:59.439Z,0
2023-03-04T05:04:06.000Z,0
2023-03-04T05:05:21.000Z,0
2023-03-04T05:06:17.000Z,0
2023-03-04T05:06:37.000Z,0
2023-03-04T05:08:02.264Z,0
2023-03-04T05:09:18.460Z,0
2023-03-04T05:10:26.000Z,0
2023-03-04T05:13:07.048Z,0
2023-03-04T05:14:23.487Z,0
2023-03-04T05:15:39.439Z,0
2023-03-04T05:16:55.885Z,0
2023-03-04T05:18:12.077Z,0
2023-03-04T05:19:28.026Z,0
2023-03-04T05:20:44.223Z,0
2023-03-04T05:21:51.000Z,0
2023-03-04T05:23:15.630Z,0
2023-03-04T05:24:23.000Z,0
2023-03-04T05:25:39.000Z,0
2023-03-04T05:27:04.468Z,0
2023-03-04T05:28:20.661Z,0
2023-03-04T05:29:36.609Z,0
2023-03-04T05:30:43.000Z,0
2023-03-04T05:31:58.000Z,0
2023-03-04T05:33:15.000Z,0
2023-03-04T05:34:30.000Z,0
2023-03-04T05:35:53.921Z,0
2023-03-04T05:37:10.125Z,0
2023-03-04T05:38:26.065Z,0
2023-03-04T05:39:42.260Z,0
2023-03-04T05:40:58.457Z,0
2023-03-04T05:42:14.652Z,0
2023-03-04T05:43:30.848Z,0
2023-03-04T05:44:47.044Z,0
2023-03-04T05:46:03.489Z,0
2023-03-04T05:47:19.436Z,0
2023-03-04T05:48:35.881Z,0
2023-03-04T05:49:51.827Z,0
2023-03-04T05:51:08.024Z,0
2023-03-04T05:52:23.235Z,0
2023-03-04T05:53:31.000Z,0
2023-03-04T05:54:55.877Z,0
2023-03-04T05:56:11.823Z,0
2023-03-04T05:57:28.019Z,0
2023-03-04T05:58:44.461Z,0
2023-03-04T05:59:52.000Z,0
2023-03-04T06:01:15.634Z,0
2023-03-04T06:02:22.000Z,0
2023-03-04T06:03:38.000Z,0
2023-03-04T06:04:55.000Z,0
2023-03-04T06:06:11.000Z,0
2023-03-04T06:07:34.907Z,0
2023-03-04T06:08:49.868Z,0
2023-03-04T06:10:06.063Z,0
2023-03-04T06:11:22.511Z,0
2023-03-04T06:12:38.702Z,0
2023-03-04T06:13:46.000Z,0
2023-03-04T06:15:10.847Z,0
2023-03-04T06:16:27.290Z,0
2023-03-04T06:17:43.501Z,0
2023-03-04T06:18:59.435Z,0
2023-03-04T06:20:07.000Z,0
2023-03-04T06:21:23.000Z,0
2023-03-04T06:22:39.000Z,0
2023-03-04T06:24:04.218Z,0
2023-03-04T06:25:19.674Z,0
2023-03-04T06:26:35.626Z,5
2023-03-04T06:27:51.822Z,5
2023-03-04T06:28:59.000Z,5
2023-03-04T06:30:24.213Z,5
2023-03-04T06:31:40.410Z,5
2023-03-04T06:32:48.000Z,5
2023-03-04T06:34:03.000Z,5
2023-03-04T06:35:18.000Z,5
2023-03-04T06:36:42.262Z,5
2023-03-04T06:37:57.474Z,11
2023-03-04T06:39:13.671Z,11
2023-03-04T06:40:30.112Z,11
2023-03-04T06:41:46.305Z,11
2023-03-04T06:43:02.510Z,11
2023-03-04T06:44:18.454Z,11
2023-03-04T06:45:34.902Z,11
2023-03-04T06:46:42.000Z,11
2023-03-04T06:48:07.287Z,11
2023-03-04T06:49:23.492Z,11
2023-03-04T06:50:39.433Z,11
2023-03-04T06:51:55.880Z,11
2023-03-04T06:53:11.825Z,16
2023-03-04T06:54:27.037Z,16
2023-03-04T06:55:43.232Z,16
2023-03-04T06:56:59.675Z,16
2023-03-04T06:58:15.624Z,16
2023-03-04T06:59:31.820Z,16
2023-03-04T07:00:17.000Z,22
2023-03-04T07:00:39.000Z,16
2023-03-04T07:02:04.465Z,16
2023-03-04T07:03:19.682Z,16
2023-03-04T07:04:34.889Z,22
2023-03-04T07:07:07.038Z,16
2023-03-04T07:08:22.515Z,22
2023-03-04T07:09:37.716Z,22
2023-03-04T07:10:53.919Z,22
2023-03-04T07:12:09.865Z,22
2023-03-04T07:13:26.060Z,22
2023-03-04T07:14:42.256Z,22
2023-03-04T07:15:50.000Z,22
2023-03-04T07:17:14.901Z,28
2023-03-04T07:18:31.093Z,28
2023-03-04T07:19:38.000Z,28
2023-03-04T07:21:03.236Z,28
2023-03-04T07:22:19.682Z,28
2023-03-04T07:23:27.000Z,28
2023-03-04T07:24:51.824Z,28
2023-03-04T07:26:07.280Z,28
2023-03-04T07:27:23.231Z,33
2023-03-04T07:28:31.000Z,33
2023-03-04T07:29:47.000Z,33
2023-03-04T07:31:03.000Z,33
2023-03-04T07:32:28.015Z,33
2023-03-04T07:33:35.000Z,33
2023-03-04T07:34:51.000Z,33
2023-03-04T07:36:14.645Z,33
2023-03-04T07:37:22.000Z,33
2023-03-04T07:38:16.000Z,39
2023-03-04T07:38:47.037Z,33
2023-03-04T07:39:55.000Z,33
2023-03-04T07:41:10.000Z,33
2023-03-04T07:42:33.669Z,39
2023-03-04T07:45:06.061Z,39
2023-03-04T07:46:14.000Z,39
2023-03-04T07:47:09.000Z,33
2023-03-04T07:47:38.452Z,39
2023-03-04T07:48:46.000Z,39
2023-03-04T07:50:02.000Z,39
2023-03-04T07:51:27.040Z,33
2023-03-04T07:53:59.680Z,39
2023-03-04T07:55:15.628Z,39
2023-03-04T07:56:31.823Z,39
2023-03-04T07:57:48.019Z,39
2023-03-04T07:58:54.000Z,39
2023-03-04T08:00:19.427Z,39
2023-03-04T08:01:35.623Z,45
2023-03-04T08:02:51.819Z,45
2023-03-04T08:04:08.260Z,50
2023-03-04T08:05:24.211Z,50
2023-03-04T08:06:40.406Z,50
2023-03-04T08:07:56.603Z,50
2023-03-04T08:08:41.000Z,56
2023-03-04T08:09:12.798Z,50
2023-03-04T08:10:20.000Z,45
2023-03-04T08:11:53.823Z,45
2023-03-04T08:12:59.700Z,45
2023-03-04T08:15:30.848Z,56
2023-03-04T08:16:46.059Z,56
2023-03-04T08:18:02.496Z,50
2023-03-04T08:19:10.000Z,50
2023-03-04T08:20:34.648Z,56
2023-03-04T08:21:42.000Z,61
2023-03-04T08:23:07.039Z,56
2023-03-04T08:24:14.000Z,56
2023-03-04T08:25:39.704Z,56
2023-03-04T08:26:55.627Z,61
2023-03-04T08:28:03.000Z,56
2023-03-04T08:29:19.000Z,61
2023-03-04T08:30:44.465Z,61
2023-03-04T08:32:00.410Z,61
2023-03-04T08:33:15.623Z,67
2023-03-04T08:34:23.000Z,67
2023-03-04T08:35:39.000Z,67
2023-03-04T08:37:04.210Z,67
2023-03-04T08:38:20.407Z,67
2023-03-04T08:39:28.000Z,78
2023-03-04T08:40:53.049Z,78
2023-03-04T08:42:08.266Z,73
2023-03-04T08:43:23.233Z,67
2023-03-04T08:44:39.429Z,67
2023-03-04T08:45:47.000Z,73
2023-03-04T08:47:10.848Z,78
2023-03-04T08:48:27.294Z,78
2023-03-04T08:49:42.255Z,78
2023-03-04T08:50:58.452Z,73
2023-03-04T08:52:06.000Z,73
2023-03-04T08:53:30.844Z,84
2023-03-04T08:54:47.039Z,84
2023-03-04T08:56:03.235Z,78
2023-03-04T08:57:19.683Z,84
2023-03-04T08:58:27.000Z,90
2023-03-04T08:59:43.000Z,95
2023-03-04T09:01:08.019Z,90
2023-03-04T09:02:24.214Z,101
2023-03-04T09:03:40.410Z,90
2023-03-04T09:04:56.606Z,84
2023-03-04T09:06:03.000Z,78
2023-03-04T09:07:19.000Z,78
2023-03-04T09:08:44.210Z,84
2023-03-04T09:09:59.427Z,90
2023-03-04T09:11:15.876Z,90
2023-03-04T09:12:31.819Z,84
2023-03-04T09:13:47.042Z,84
2023-03-04T09:15:02.523Z,84
2023-03-04T09:15:47.000Z,84
2023-03-04T09:16:09.000Z,84
2023-03-04T09:17:32.929Z,90
2023-03-04T09:18:40.000Z,84
2023-03-04T09:20:05.080Z,90
2023-03-04T09:22:37.471Z,84
2023-03-04T09:23:45.000Z,84
2023-03-04T09:25:01.000Z,101
2023-03-04T09:26:26.059Z,112
2023-03-04T09:27:42.509Z,106
2023-03-04T09:28:50.000Z,106
2023-03-04T09:30:06.000Z,106
2023-03-04T09:31:31.096Z,106
2023-03-04T09:32:47.038Z,106
2023-03-04T09:34:02.252Z,106
2023-03-04T09:35:10.000Z,106
2023-03-04T09:36:26.000Z,112
2023-03-04T09:37:42.000Z,106
2023-03-04T09:39:07.035Z,106
2023-03-04T09:39:52.000Z,112
2023-03-04T09:40:23.231Z,106
2023-03-04T09:41:39.684Z,106
2023-03-04T09:42:54.901Z,106
2023-03-04T09:44:10.110Z,112
2023-03-04T09:46:42.254Z,123
2023-03-04T09:47:27.000Z,253
2023-03-04T09:47:57.725Z,129
2023-03-04T09:49:12.942Z,163
2023-03-04T09:50:28.885Z,191
2023-03-04T09:51:45.336Z,230
2023-03-04T09:54:09.000Z,241
2023-03-04T09:55:33.911Z,225
2023-03-04T09:56:49.866Z,236
2023-03-04T09:57:57.000Z,219
2023-03-04T09:59:22.499Z,185
2023-03-04T10:00:30.000Z,219
2023-03-04T10:01:54.919Z,219
2023-03-04T10:02:40.000Z,196
2023-03-04T10:03:11.090Z,219
2023-03-04T10:04:27.287Z,225
2023-03-04T10:05:34.000Z,225
2023-03-04T10:06:50.000Z,191
2023-03-04T10:09:00.000Z,281
2023-03-04T10:09:31.086Z,213
2023-03-04T10:10:47.279Z,247
2023-03-04T10:12:03.233Z,253
2023-03-04T10:13:19.428Z,253
2023-03-04T10:15:50.109Z,292
2023-03-04T10:17:06.059Z,303
2023-03-04T10:18:14.000Z,298
2023-03-04T10:19:38.451Z,298
2023-03-04T10:20:53.673Z,298
2023-03-04T10:22:01.000Z,292
2023-03-04T10:23:16.000Z,298
2023-03-04T10:24:41.530Z,320
2023-03-04T10:25:57.723Z,371
2023-03-04T10:27:13.935Z,382
2023-03-04T10:28:21.000Z,371
2023-03-04T10:29:37.000Z,354
2023-03-04T10:30:54.000Z,320
2023-03-04T10:32:10.000Z,348
2023-03-04T10:33:34.892Z,315
2023-03-04T10:34:50.843Z,281
2023-03-04T10:35:58.000Z,275
2023-03-04T10:37:23.235Z,258
2023-03-04T10:38:39.430Z,241
2023-03-04T10:39:46.000Z,253
2023-03-04T10:41:10.838Z,236
2023-03-04T10:42:27.282Z,225
2023-03-04T10:43:43.230Z,258
2023-03-04T10:44:51.000Z,225
2023-03-04T10:46:07.000Z,168
2023-03-04T10:47:31.099Z,135
2023-03-04T10:48:46.299Z,151
2023-03-04T10:50:02.496Z,157
2023-03-04T10:51:10.000Z,151
2023-03-04T10:52:26.000Z,140
2023-03-04T10:53:50.839Z,146
2023-03-04T10:55:07.035Z,168
2023-03-04T10:56:23.231Z,185
2023-03-04T10:57:39.427Z,174
2023-03-04T10:58:55.622Z,163
2023-03-04T11:00:12.070Z,157
2023-03-04T11:01:28.267Z,163
2023-03-04T11:02:44.210Z,174
2023-03-04T11:04:00.648Z,157
2023-03-04T11:05:15.865Z,163
2023-03-04T11:06:23.000Z,225
2023-03-04T11:07:39.000Z,292
2023-03-04T11:09:04.207Z,309
2023-03-04T11:10:20.403Z,309
2023-03-04T11:11:36.599Z,348
2023-03-04T11:12:44.000Z,376
2023-03-04T11:14:08.265Z,354
2023-03-04T11:15:14.000Z,303
2023-03-04T11:16:30.000Z,236
2023-03-04T11:17:53.909Z,213
2023-03-04T11:19:09.858Z,241
2023-03-04T11:20:26.055Z,309
2023-03-04T11:21:42.504Z,343
2023-03-04T11:22:58.690Z,388
2023-03-04T11:24:14.890Z,298
2023-03-04T11:25:30.839Z,219
2023-03-04T11:26:47.036Z,174
2023-03-04T11:28:03.232Z,163
2023-03-04T11:29:19.427Z,180
2023-03-04T11:30:35.623Z,174
2023-03-04T11:31:51.818Z,213
2023-03-04T11:33:08.267Z,219
2023-03-04T11:34:23.226Z,213
2023-03-04T11:35:39.422Z,247
2023-03-04T11:36:55.617Z,258
2023-03-04T11:38:03.000Z,303
2023-03-04T11:39:19.000Z,315
2023-03-04T11:40:35.000Z,298
2023-03-04T11:41:52.000Z,348
2023-03-04T11:43:16.598Z,388
2023-03-04T11:44:32.793Z,360
2023-03-04T11:45:40.000Z,320
2023-03-04T11:46:56.000Z,303
2023-03-04T11:48:13.000Z,253
2023-03-04T11:49:29.000Z,247
2023-03-04T11:50:53.055Z,270
2023-03-04T11:52:00.000Z,270
2023-03-04T11:53:25.426Z,286
2023-03-04T11:54:33.000Z,236
2023-03-04T11:55:57.571Z,208
2023-03-04T11:57:05.000Z,191
2023-03-04T11:58:30.216Z,180
2023-03-04T11:59:36.000Z,174
2023-03-04T12:01:00.397Z,185
2023-03-04T12:02:08.000Z,168
2023-03-04T12:03:24.000Z,174
2023-03-04T12:04:40.000Z,202
2023-03-04T12:06:04.457Z,275
2023-03-04T12:07:19.671Z,309
2023-03-04T12:08:35.862Z,354
2023-03-04T12:09:52.072Z,326
2023-03-04T12:11:08.247Z,303
2023-03-04T12:12:15.000Z,253
2023-03-04T12:13:40.640Z,275
2023-03-04T12:14:56.840Z,258
2023-03-04T12:16:04.000Z,264
2023-03-04T12:17:20.000Z,241
2023-03-04T12:18:36.000Z,225
2023-03-04T12:19:53.000Z,230
2023-03-04T12:21:17.555Z,281
2023-03-04T12:22:25.000Z,264
2023-03-04T12:23:40.000Z,264
2023-03-04T12:25:05.414Z,258
2023-03-04T12:26:13.000Z,241
2023-03-04T12:27:29.000Z,230
2023-03-04T12:28:53.988Z,230
2023-03-04T12:30:10.182Z,230
2023-03-04T12:31:17.000Z,236
2023-03-04T12:32:41.341Z,174
2023-03-04T12:33:56.551Z,174
2023-03-04T12:35:12.744Z,168
2023-03-04T12:36:29.187Z,135
2023-03-04T12:37:35.000Z,123
2023-03-04T12:38:51.000Z,118
2023-03-04T12:40:15.803Z,112
2023-03-04T12:41:31.755Z,123
2023-03-04T12:42:39.000Z,129
2023-03-04T12:44:04.142Z,129
2023-03-04T12:45:20.576Z,135
2023-03-04T12:46:36.530Z,151
2023-03-04T12:47:52.723Z,208
2023-03-04T12:49:00.000Z,230
2023-03-04T12:50:16.000Z,213
2023-03-04T12:51:41.305Z,213
2023-03-04T12:52:49.000Z,196
2023-03-04T12:54:05.000Z,202
2023-03-04T12:55:28.901Z,180
2023-03-04T12:56:36.000Z,168
2023-03-04T12:57:53.000Z,140
2023-03-04T12:59:17.482Z,140
2023-03-04T13:00:33.676Z,185
2023-03-04T13:01:41.000Z,208
2023-03-04T13:03:06.304Z,230
2023-03-04T13:04:22.512Z,264
2023-03-04T13:05:37.723Z,264
2023-03-04T13:06:53.670Z,225
2023-03-04T13:07:38.000Z,264
2023-03-04T13:08:09.141Z,241
2023-03-04T13:09:24.101Z,230
2023-03-04T13:10:40.294Z,258
2023-03-04T13:11:48.000Z,286
2023-03-04T13:14:28.874Z,253
2023-03-04T13:15:36.000Z,253
2023-03-04T13:17:01.508Z,241
2023-03-04T13:18:17.700Z,202
2023-03-04T13:19:25.000Z,191
2023-03-04T13:20:41.000Z,202
2023-03-04T13:22:06.284Z,202
2023-03-04T13:23:13.000Z,196
2023-03-04T13:24:29.000Z,185
2023-03-04T13:25:53.892Z,202
2023-03-04T13:27:01.000Z,191
2023-03-04T13:28:26.272Z,174
2023-03-04T13:29:42.220Z,163
2023-03-04T13:30:50.000Z,123
2023-03-04T13:32:06.000Z,112
2023-03-04T13:33:22.000Z,112
2023-03-04T13:34:37.000Z,118
2023-03-04T13:36:01.231Z,112
2023-03-04T13:37:17.425Z,140
2023-03-04T13:38:32.644Z,157
2023-03-04T13:39:39.000Z,168
2023-03-04T13:41:04.048Z,157
2023-03-04T13:42:11.000Z,146
2023-03-04T13:43:36.435Z,146
2023-03-04T13:44:52.874Z,135
2023-03-04T13:46:00.000Z,140
2023-03-04T13:47:16.000Z,168
2023-03-04T13:48:41.483Z,174
2023-03-04T13:49:49.000Z,185
2023-03-04T13:51:13.597Z,196
2023-03-04T13:52:30.037Z,185
2023-03-04T13:53:37.000Z,157
2023-03-04T13:54:53.000Z,146
2023-03-04T13:56:09.000Z,135
2023-03-04T13:57:25.000Z,140
2023-03-04T13:58:49.775Z,135
2023-03-04T14:00:05.968Z,135
2023-03-04T14:01:13.000Z,135
2023-03-04T14:02:38.356Z,129
2023-03-04T14:03:54.549Z,140
2023-03-04T14:05:01.000Z,151
2023-03-04T14:06:25.220Z,163
2023-03-04T14:07:41.426Z,157
2023-03-04T14:08:56.393Z,140
2023-03-04T14:10:11.850Z,118
2023-03-04T14:11:27.797Z,101
2023-03-04T14:12:35.000Z,101
2023-03-04T14:13:51.000Z,101
2023-03-04T14:15:16.633Z,95
2023-03-04T14:16:24.000Z,101
2023-03-04T14:17:48.765Z,112
2023-03-04T14:19:01.000Z,90
2023-03-04T14:20:12.000Z,90
2023-03-04T14:21:29.000Z,90
2023-03-04T14:22:53.540Z,84
2023-03-04T14:24:09.734Z,67
2023-03-04T14:25:17.000Z,67
2023-03-04T14:26:32.000Z,73
2023-03-04T14:27:49.000Z,67
2023-03-04T14:29:13.524Z,67
2023-03-04T14:30:29.718Z,73
2023-03-04T14:31:46.153Z,84
2023-03-04T14:32:53.000Z,73
2023-03-04T14:34:18.299Z,67
2023-03-04T14:35:33.770Z,61
2023-03-04T14:36:41.000Z,61
2023-03-04T14:38:04.923Z,67
2023-03-04T14:39:20.143Z,67
2023-03-04T14:40:35.353Z,73
2023-03-04T14:41:43.000Z,67
2023-03-04T14:43:07.982Z,73
2023-03-04T14:44:23.933Z,84
2023-03-04T14:45:40.127Z,84
2023-03-04T14:46:56.563Z,90
2023-03-04T14:48:12.757Z,78
2023-03-04T14:49:20.000Z,67
2023-03-04T14:50:44.901Z,78
2023-03-04T14:51:52.000Z,73
2023-03-04T14:53:17.288Z,84
2023-03-04T14:54:25.000Z,78
2023-03-04T14:55:49.675Z,67
2023-03-04T14:57:05.127Z,67
2023-03-04T14:58:12.000Z,61
2023-03-04T14:59:28.000Z,50
2023-03-04T15:00:53.712Z,56
2023-03-04T15:02:09.659Z,50
2023-03-04T15:03:26.101Z,56
2023-03-04T15:04:42.047Z,67
2023-03-04T15:05:57.505Z,73
2023-03-04T15:07:13.461Z,67
2023-03-04T15:08:28.919Z,67
2023-03-04T15:09:44.864Z,67
2023-03-04T15:10:52.000Z,67
2023-03-04T15:12:08.000Z,73
2023-03-04T15:13:25.000Z,95
2023-03-04T15:14:41.000Z,101
2023-03-04T15:16:05.833Z,84
2023-03-04T15:17:22.278Z,84
2023-03-04T15:18:38.461Z,95
2023-03-04T15:19:46.000Z,90
2023-03-04T15:21:02.000Z,84
2023-03-04T15:22:17.000Z,56
2023-03-04T15:23:41.285Z,67
2023-03-04T15:24:57.482Z,78
2023-03-04T15:26:13.673Z,67
2023-03-04T15:27:29.619Z,73
2023-03-04T15:28:45.812Z,67
2023-03-04T15:30:02.248Z,67
2023-03-04T15:31:18.199Z,78
2023-03-04T15:32:26.000Z,78
2023-03-04T15:33:50.834Z,67
2023-03-04T15:34:58.000Z,61
2023-03-04T15:36:22.975Z,61
2023-03-04T15:37:39.169Z,56
2023-03-04T15:38:55.620Z,45
2023-03-04T15:40:10.814Z,39
2023-03-04T15:41:27.016Z,50
2023-03-04T15:42:34.000Z,45
2023-03-04T15:43:50.000Z,39
2023-03-04T15:45:15.347Z,39
2023-03-04T15:46:31.540Z,33
2023-03-04T15:47:39.000Z,33
2023-03-04T15:48:31.000Z,22
2023-03-04T15:49:03.208Z,33
2023-03-04T15:50:09.000Z,33
2023-03-04T15:51:34.600Z,33
2023-03-04T15:52:42.000Z,28
2023-03-04T15:55:21.229Z,28
2023-03-04T15:56:37.415Z,39
2023-03-04T15:57:53.370Z,45
2023-03-04T15:59:01.000Z,45
2023-03-04T16:00:26.011Z,45
2023-03-04T16:01:33.000Z,39
2023-03-04T16:02:58.387Z,39
2023-03-04T16:04:14.338Z,33
2023-03-04T16:05:30.532Z,45
2023-03-04T16:06:46.726Z,45
2023-03-04T16:07:54.000Z,39
2023-03-04T16:09:19.358Z,39
2023-03-04T16:10:35.307Z,33
2023-03-04T16:11:42.000Z,22
2023-03-04T16:12:58.000Z,22
2023-03-04T16:14:14.000Z,16
2023-03-04T16:15:30.000Z,22
2023-03-04T16:16:46.000Z,16
2023-03-04T16:18:11.730Z,16
2023-03-04T16:19:19.000Z,16
2023-03-04T16:20:43.143Z,16
2023-03-04T16:21:49.000Z,16
2023-03-04T16:23:13.330Z,16
2023-03-04T16:23:59.000Z,16
2023-03-04T16:24:28.541Z,16
2023-03-04T16:25:36.000Z,11
2023-03-04T16:26:52.000Z,11
2023-03-04T16:27:47.000Z,16
2023-03-04T16:28:08.000Z,16
2023-03-04T16:30:20.000Z,11
2023-03-04T16:30:41.000Z,11
2023-03-04T16:32:05.950Z,16
2023-03-04T16:34:29.000Z,16
2023-03-04T16:37:02.000Z,11
2023-03-04T16:38:18.000Z,11
2023-03-04T16:39:43.110Z,11
2023-03-04T16:40:58.323Z,11
2023-03-04T16:42:05.000Z,5
2023-03-04T16:43:30.467Z,5
2023-03-04T16:44:38.000Z,5
2023-03-04T16:46:03.114Z,5
2023-03-04T16:47:19.048Z,5
2023-03-04T16:48:26.000Z,5
2023-03-04T16:49:50.711Z,5
2023-03-04T16:50:57.000Z,5
2023-03-04T16:52:21.867Z,5
2023-03-04T16:53:37.087Z,5
2023-03-04T16:54:52.298Z,5
2023-03-04T16:56:00.000Z,5
2023-03-04T16:57:24.927Z,5
2023-03-04T16:58:32.000Z,5
2023-03-04T16:59:57.342Z,5
2023-03-04T17:01:04.000Z,5
2023-03-04T17:02:29.714Z,5
2023-03-04T17:03:42.000Z,5
2023-03-04T17:04:53.000Z,0
2023-03-04T17:06:09.000Z,0
2023-03-04T17:07:25.000Z,0
2023-03-04T17:08:42.000Z,0
2023-03-04T17:10:06.867Z,0
2023-03-04T17:11:13.000Z,0
2023-03-04T17:12:38.028Z,0
2023-03-04T17:13:45.000Z,0
2023-03-04T17:15:10.417Z,0
2023-03-04T17:16:50.720Z,0
2023-03-04T17:17:43.057Z,0
2023-03-04T17:18:58.999Z,0
2023-03-04T17:20:06.000Z,0
2023-03-04T17:20:58.000Z,0
2023-03-04T17:21:22.000Z,0
2023-03-04T17:22:45.874Z,0
2023-03-04T17:24:02.067Z,0
2023-03-04T17:25:08.000Z,0
2023-03-04T17:27:48.441Z,0
2023-03-04T17:29:04.889Z,0
2023-03-04T17:30:12.000Z,0
2023-03-04T17:31:37.024Z,0
2023-03-04T17:32:53.469Z,0
2023-03-04T17:34:09.412Z,0
2023-03-04T17:35:25.606Z,0
2023-03-04T17:36:41.800Z,0
2023-03-04T17:37:49.000Z,0
2023-03-04T17:39:14.187Z,0
2023-03-04T17:40:29.653Z,0
2023-03-04T17:41:45.597Z,0
2023-03-04T17:42:53.000Z,0
2023-03-04T17:44:18.234Z,0
2023-03-04T17:45:34.179Z,0
2023-03-04T17:46:20.000Z,0
2023-03-04T17:46:50.373Z,0
2023-03-04T17:48:06.809Z,0
2023-03-04T17:49:22.761Z,0
2023-03-04T17:50:30.000Z,0
2023-03-04T17:53:11.594Z,0
2023-03-04T17:54:27.536Z,0
2023-03-04T17:55:43.981Z,0
2023-03-04T17:56:58.940Z,0
2023-03-04T17:58:15.383Z,0
2023-03-04T17:59:31.328Z,0
2023-03-04T18:00:47.522Z,0
2023-03-04T18:01:55.000Z,0
2023-03-04T18:03:11.000Z,0
2023-03-04T18:04:36.105Z,0
2023-03-04T18:05:52.298Z,0
2023-03-04T18:07:08.492Z,0
2023-03-04T18:08:24.686Z,0
2023-03-04T18:09:41.134Z,0
2023-03-04T18:10:57.074Z,0
2023-03-04T18:11:42.000Z,0